Time;durP1;ratioP1;P1;durP2;ratioP2;P2;SDS_P1;SDS_P2;PMS_P1;PMS_P2;Temp;Humidity;BMP_temperature;BMP_pressure;BME280_temperature;BME280_humidity;BME280_pressure;Samples;Min_cycle;Max_cycle;Signal;HPM_P1;HPM_P2
2023/07/09 00:02:36;;;;;;;0.90;0.70;;;22.00;57.80;;;;;;6270992;28;20395;-70
2023/07/09 00:05:36;;;;;;;0.90;0.90;;;22.00;57.80;;;;;;6270321;28;20041;-70
2023/07/09 00:08:41;;;;;;;1.00;0.77;;;22.00;57.90;;;;;;6270990;28;20107;-70
2023/07/09 00:11:43;;;;;;;1.45;0.80;;;22.10;58.00;;;;;;6270488;28;20053;-70
2023/07/09 00:14:44;;;;;;;0.95;0.80;;;22.00;57.90;;;;;;6271113;28;20032;-72
2023/07/09 00:17:45;;;;;;;0.95;0.80;;;22.00;57.80;;;;;;6269996;28;20511;-70
2023/07/09 00:20:47;;;;;;;0.80;0.60;;;22.00;57.90;;;;;;6270612;28;20040;-71
2023/07/09 00:23:49;;;;;;;0.80;0.80;;;22.10;57.90;;;;;;6270950;28;20025;-71
2023/07/09 00:26:50;;;;;;;0.93;0.80;;;22.00;57.90;;;;;;6269707;28;20083;-71
2023/07/09 00:29:52;;;;;;;0.77;0.70;;;22.10;58.00;;;;;;6270119;28;20053;-70
2023/07/09 00:32:54;;;;;;;1.23;1.05;;;22.00;57.90;;;;;;6227627;28;20087;-70
2023/07/09 00:35:54;;;;;;;1.40;1.13;;;22.10;58.00;;;;;;6253447;28;20032;-71
2023/07/09 00:39:00;;;;;;;1.00;0.80;;;22.10;58.00;;;;;;6269890;28;20415;-71
2023/07/09 00:42:01;;;;;;;1.30;1.00;;;22.10;58.00;;;;;;6269979;28;20025;-70
2023/07/09 00:45:05;;;;;;;1.13;0.75;;;22.00;57.90;;;;;;6269909;28;20106;-70
2023/07/09 00:48:12;;;;;;;1.65;1.00;;;22.00;57.90;;;;;;6269684;28;20033;-71
2023/07/09 00:51:17;;;;;;;0.80;0.70;;;22.10;58.00;;;;;;6269240;28;20033;-70
2023/07/09 00:54:37;;;;;;;1.25;1.00;;;22.10;58.00;;;;;;6251945;28;20120;-71
2023/07/09 00:57:41;;;;;;;1.17;0.90;;;22.10;58.00;;;;;;6269154;28;20036;-70
2023/07/09 01:00:48;;;;;;;0.98;0.90;;;22.10;58.00;;;;;;6269833;28;20032;-70
2023/07/09 01:03:53;;;;;;;1.15;0.98;;;22.10;58.00;;;;;;6251477;28;20037;-70
2023/07/09 01:06:55;;;;;;;1.23;0.95;;;22.10;58.00;;;;;;6269166;28;20552;-70
2023/07/09 01:09:56;;;;;;;1.25;0.90;;;22.10;58.00;;;;;;6269277;28;20020;-70
2023/07/09 01:12:57;;;;;;;1.30;0.90;;;22.10;58.00;;;;;;6269127;28;20044;-70
2023/07/09 01:15:59;;;;;;;1.15;0.88;;;22.10;58.00;;;;;;6269828;28;20028;-70
2023/07/09 01:19:00;;;;;;;0.95;0.70;;;22.10;58.00;;;;;;6269034;28;20020;-70
2023/07/09 01:22:01;;;;;;;0.88;0.70;;;22.10;58.00;;;;;;6269102;28;20079;-70
2023/07/09 01:25:07;;;;;;;1.60;1.08;;;22.10;58.00;;;;;;6269583;28;20028;-70
2023/07/09 01:28:07;;;;;;;1.73;0.88;;;22.10;58.00;;;;;;6269046;28;20044;-71
2023/07/09 01:31:09;;;;;;;1.65;0.95;;;22.10;58.00;;;;;;6268618;28;20045;-70
2023/07/09 01:34:10;;;;;;;1.15;0.82;;;22.10;58.00;;;;;;6268857;28;20025;-70
2023/07/09 01:37:10;;;;;;;0.95;0.80;;;22.10;58.00;;;;;;6268373;28;20055;-70
2023/07/09 01:40:14;;;;;;;1.45;0.85;;;22.10;58.10;;;;;;6269002;28;20057;-70
2023/07/09 01:43:15;;;;;;;1.27;0.90;;;22.10;58.00;;;;;;6268470;28;20098;-70
2023/07/09 01:46:16;;;;;;;1.65;0.90;;;22.00;58.00;;;;;;6268586;28;20356;-70
2023/07/09 01:49:17;;;;;;;0.80;0.70;;;22.10;58.00;;;;;;6267749;28;20029;-70
2023/07/09 01:52:19;;;;;;;1.38;1.05;;;22.10;58.00;;;;;;6268128;28;20021;-70
2023/07/09 01:55:20;;;;;;;2.83;1.02;;;22.10;58.00;;;;;;6268727;28;20032;-70
2023/07/09 01:58:24;;;;;;;1.00;0.70;;;22.10;58.10;;;;;;6267907;28;20459;-70
2023/07/09 02:01:25;;;;;;;1.60;1.03;;;22.10;58.00;;;;;;6268359;28;20031;-71
2023/07/09 02:04:27;;;;;;;1.13;0.70;;;22.10;58.00;;;;;;6264393;28;20407;-71
2023/07/09 02:07:28;;;;;;;1.30;0.82;;;22.10;58.10;;;;;;6268112;28;20036;-71
2023/07/09 02:10:30;;;;;;;1.25;1.08;;;22.00;58.00;;;;;;6268232;28;20021;-70
2023/07/09 02:13:32;;;;;;;1.35;0.98;;;22.00;58.00;;;;;;6268278;28;20021;-71
2023/07/09 02:16:33;;;;;;;1.70;1.10;;;22.10;58.10;;;;;;6260172;28;20032;-70
2023/07/09 02:19:35;;;;;;;1.23;0.95;;;22.10;58.10;;;;;;6268216;28;20040;-71
2023/07/09 02:22:38;;;;;;;0.88;0.70;;;22.10;58.10;;;;;;6267653;28;20017;-70
2023/07/09 02:25:39;;;;;;;1.40;0.90;;;22.00;58.00;;;;;;6267930;28;20043;-71
2023/07/09 02:28:39;;;;;;;1.35;1.08;;;22.00;58.00;;;;;;6267704;28;20025;-71
2023/07/09 02:31:40;;;;;;;1.00;0.80;;;22.10;58.10;;;;;;6264450;28;20140;-70
2023/07/09 02:34:40;;;;;;;1.10;0.80;;;22.00;58.00;;;;;;6267647;28;20079;-70
2023/07/09 02:37:41;;;;;;;1.13;0.80;;;22.10;58.10;;;;;;6267465;28;20056;-71
2023/07/09 02:40:42;;;;;;;1.40;1.10;;;22.10;58.10;;;;;;6267664;28;20025;-70
2023/07/09 02:43:42;;;;;;;1.17;1.00;;;22.10;58.10;;;;;;6267449;28;20017;-70
2023/07/09 02:46:43;;;;;;;0.80;0.80;;;22.00;58.00;;;;;;6267485;28;20099;-70
2023/07/09 02:49:44;;;;;;;1.30;1.05;;;22.10;58.10;;;;;;6267462;28;20319;-70
2023/07/09 02:52:45;;;;;;;1.85;1.00;;;22.10;58.20;;;;;;6267561;28;20029;-70
2023/07/09 02:55:45;;;;;;;1.58;0.90;;;22.10;58.10;;;;;;6267552;28;20017;-70
2023/07/09 02:58:46;;;;;;;1.02;0.85;;;22.10;58.10;;;;;;6266829;28;20369;-70
2023/07/09 03:01:47;;;;;;;1.13;1.02;;;22.00;58.00;;;;;;6270076;28;20059;-70
2023/07/09 03:04:48;;;;;;;1.10;0.90;;;22.10;58.20;;;;;;6269004;28;20029;-70
2023/07/09 03:07:48;;;;;;;1.30;1.08;;;22.10;58.10;;;;;;6265500;28;20364;-70
2023/07/09 03:10:49;;;;;;;1.27;1.10;;;22.10;58.20;;;;;;6272501;28;20375;-70
2023/07/09 03:13:49;;;;;;;1.27;1.10;;;22.10;58.20;;;;;;6272113;28;20029;-71
2023/07/09 03:16:50;;;;;;;1.90;1.10;;;22.10;58.20;;;;;;6272937;28;20033;-70
2023/07/09 03:19:51;;;;;;;1.00;0.88;;;22.10;58.20;;;;;;6271743;28;20523;-71
2023/07/09 03:22:53;;;;;;;1.08;0.85;;;22.00;58.10;;;;;;6271643;28;20028;-70
2023/07/09 03:25:55;;;;;;;1.83;1.10;;;22.00;58.10;;;;;;6271486;28;20403;-70
2023/07/09 03:28:56;;;;;;;1.92;0.90;;;22.10;58.20;;;;;;6271827;28;20483;-70
2023/07/09 03:31:56;;;;;;;1.00;0.90;;;22.00;58.10;;;;;;6271475;28;20094;-70
2023/07/09 03:34:57;;;;;;;1.58;1.02;;;22.10;58.20;;;;;;6271556;28;20036;-70
2023/07/09 03:37:57;;;;;;;1.42;0.90;;;22.00;58.10;;;;;;6271496;28;20056;-70
2023/07/09 03:40:58;;;;;;;1.23;0.93;;;22.10;58.20;;;;;;6271999;28;20515;-70
2023/07/09 03:44:00;;;;;;;1.13;1.00;;;22.10;58.20;;;;;;6271251;28;20418;-70
2023/07/09 03:47:00;;;;;;;1.23;1.10;;;22.10;58.20;;;;;;6271240;28;20025;-70
2023/07/09 03:50:01;;;;;;;1.13;0.90;;;22.10;58.20;;;;;;6270989;28;20033;-70
2023/07/09 03:53:02;;;;;;;1.33;1.00;;;22.00;58.10;;;;;;6270733;28;20411;-70
2023/07/09 03:56:02;;;;;;;1.05;0.85;;;22.10;58.20;;;;;;6270577;28;20500;-70
2023/07/09 04:03:00;;;;;;;1.02;0.85;;;22.10;58.20;;;;;;6271107;28;20029;-70
2023/07/09 04:06:01;;;;;;;1.08;0.90;;;22.10;58.20;;;;;;6265950;28;20047;-70
2023/07/09 04:09:01;;;;;;;1.35;0.80;;;22.10;58.20;;;;;;6270838;28;20017;-70
2023/07/09 04:12:02;;;;;;;1.63;0.93;;;22.10;58.30;;;;;;6270571;28;20085;-70
2023/07/09 04:15:04;;;;;;;1.38;1.10;;;22.10;58.30;;;;;;6270168;28;20033;-70
2023/07/09 04:18:05;;;;;;;1.10;0.90;;;22.10;58.20;;;;;;6270883;28;20459;-70
2023/07/09 04:21:05;;;;;;;1.30;1.02;;;22.10;58.30;;;;;;6270371;28;20033;-70
2023/07/09 04:24:06;;;;;;;1.15;0.85;;;22.10;58.30;;;;;;6270546;28;20033;-70
2023/07/09 04:27:08;;;;;;;0.88;0.70;;;22.00;58.10;;;;;;6270170;28;20033;-70
2023/07/09 04:30:12;;;;;;;1.40;1.08;;;22.10;58.30;;;;;;6269577;28;20083;-71
2023/07/09 04:33:12;;;;;;;1.45;1.00;;;22.10;58.30;;;;;;6270106;28;20037;-71
2023/07/09 04:36:13;;;;;;;0.80;0.68;;;22.10;58.30;;;;;;6266530;28;20052;-70
2023/07/09 04:39:14;;;;;;;1.50;1.00;;;22.10;58.30;;;;;;6269884;28;20025;-71
2023/07/09 04:42:16;;;;;;;1.15;0.88;;;22.10;58.30;;;;;;6270052;28;20499;-70
2023/07/09 04:45:18;;;;;;;0.80;0.80;;;22.10;58.30;;;;;;6269225;28;20104;-71
2023/07/09 04:48:18;;;;;;;1.45;1.10;;;22.10;58.30;;;;;;6265060;28;20568;-71
2023/07/09 04:51:19;;;;;;;1.10;0.90;;;22.00;58.20;;;;;;6269231;28;20033;-70
2023/07/09 04:54:22;;;;;;;1.17;0.90;;;22.00;58.20;;;;;;6268915;28;20049;-71
2023/07/09 04:57:22;;;;;;;1.00;0.90;;;22.00;58.20;;;;;;6269125;28;20033;-71
2023/07/09 05:00:23;;;;;;;0.77;0.77;;;22.10;58.30;;;;;;6269068;28;20048;-71
2023/07/09 05:03:24;;;;;;;1.05;0.80;;;22.10;58.30;;;;;;6246786;28;20033;-70
2023/07/09 05:06:24;;;;;;;1.25;0.93;;;22.10;58.30;;;;;;6261188;28;20113;-71
2023/07/09 05:09:25;;;;;;;0.70;0.70;;;22.10;58.30;;;;;;6269004;28;20088;-70
2023/07/09 05:12:27;;;;;;;1.40;0.90;;;22.10;58.30;;;;;;6269307;28;20051;-70
2023/07/09 05:15:27;;;;;;;1.52;0.80;;;22.00;58.20;;;;;;6268928;28;20021;-70
2023/07/09 05:18:28;;;;;;;0.88;0.82;;;22.10;58.30;;;;;;6268985;28;20372;-70
2023/07/09 05:21:29;;;;;;;1.00;0.90;;;22.10;58.30;;;;;;6268541;28;20025;-70
2023/07/09 05:24:29;;;;;;;1.17;0.85;;;22.10;58.30;;;;;;6267292;28;20494;-71
2023/07/09 05:27:30;;;;;;;1.38;1.10;;;22.00;58.20;;;;;;6268691;28;20082;-70
2023/07/09 05:30:31;;;;;;;1.63;1.20;;;22.10;58.30;;;;;;6268260;28;20096;-70
2023/07/09 05:33:31;;;;;;;1.60;0.90;;;22.00;58.30;;;;;;6268347;28;20036;-70
2023/07/09 05:36:32;;;;;;;1.60;1.00;;;22.10;58.30;;;;;;6268460;28;20017;-71
2023/07/09 05:39:34;;;;;;;1.27;0.98;;;22.10;58.40;;;;;;6265141;28;20108;-71
2023/07/09 05:42:34;;;;;;;1.20;0.93;;;22.10;58.40;;;;;;6268546;28;20033;-70
2023/07/09 05:45:35;;;;;;;1.55;1.10;;;22.10;58.40;;;;;;6267370;28;20039;-71
2023/07/09 05:48:36;;;;;;;1.10;0.90;;;22.10;58.40;;;;;;6268227;28;20053;-70
2023/07/09 05:51:37;;;;;;;1.52;1.08;;;22.10;58.40;;;;;;6268221;28;20067;-70
2023/07/09 05:54:37;;;;;;;1.48;0.90;;;22.10;58.40;;;;;;6267957;28;20075;-71
2023/07/09 05:57:39;;;;;;;1.20;1.02;;;22.10;58.40;;;;;;6267586;28;20029;-70
2023/07/09 06:00:41;;;;;;;0.90;0.80;;;22.10;58.40;;;;;;6267978;28;20106;-71
2023/07/09 06:03:42;;;;;;;1.27;0.85;;;22.10;58.40;;;;;;6268363;28;20028;-71
2023/07/09 06:06:43;;;;;;;1.00;0.90;;;22.10;58.40;;;;;;6267877;28;20032;-70
2023/07/09 06:09:45;;;;;;;1.38;1.00;;;22.10;58.40;;;;;;6267561;28;20043;-71
2023/07/09 06:12:46;;;;;;;0.98;0.90;;;22.10;58.40;;;;;;6267561;28;20025;-70
2023/07/09 06:15:48;;;;;;;0.90;0.70;;;22.10;58.40;;;;;;6267586;28;20048;-70
2023/07/09 06:18:48;;;;;;;1.00;0.90;;;22.10;58.40;;;;;;6267604;28;20058;-70
2023/07/09 06:21:49;;;;;;;1.10;0.90;;;22.10;58.40;;;;;;6267770;28;20028;-71
2023/07/09 06:24:49;;;;;;;1.27;1.00;;;22.00;58.30;;;;;;6267264;28;20021;-70
2023/07/09 06:27:50;;;;;;;1.30;1.10;;;22.10;58.40;;;;;;6267287;28;20041;-70
2023/07/09 06:30:51;;;;;;;1.38;1.05;;;22.10;58.40;;;;;;6267072;28;20515;-70
2023/07/09 06:33:52;;;;;;;1.23;1.00;;;22.00;58.30;;;;;;6267492;28;20492;-71
2023/07/09 06:36:54;;;;;;;2.05;1.10;;;22.10;58.40;;;;;;6266414;28;20082;-70
2023/07/09 06:39:54;;;;;;;1.20;0.93;;;22.10;58.50;;;;;;6267133;28;20039;-70
2023/07/09 06:42:55;;;;;;;1.00;0.90;;;22.10;58.40;;;;;;6267473;28;20483;-70
2023/07/09 06:45:58;;;;;;;0.93;0.80;;;22.00;58.30;;;;;;6266924;28;20388;-71
2023/07/09 06:48:58;;;;;;;1.35;1.08;;;22.10;58.40;;;;;;6267016;28;20021;-70
2023/07/09 06:51:59;;;;;;;2.13;1.00;;;22.00;58.30;;;;;;6266944;28;20545;-70
2023/07/09 06:54:59;;;;;;;0.80;0.80;;;22.10;58.50;;;;;;6267015;28;20111;-70
2023/07/09 06:58:00;;;;;;;1.13;0.90;;;22.10;58.50;;;;;;6267130;28;20052;-70
2023/07/09 07:01:03;;;;;;;0.85;0.80;;;22.10;58.40;;;;;;6266648;28;20017;-71
2023/07/09 07:04:04;;;;;;;0.80;0.70;;;22.10;58.50;;;;;;6266926;28;20017;-70
2023/07/09 07:07:04;;;;;;;1.38;1.05;;;22.10;58.50;;;;;;6266513;28;20036;-71
2023/07/09 07:10:05;;;;;;;1.10;1.00;;;22.10;59.10;;;;;;6266794;28;20043;-70
2023/07/09 07:13:06;;;;;;;1.55;1.20;;;22.10;58.50;;;;;;6266920;28;20534;-71
2023/07/09 07:16:09;;;;;;;1.00;0.90;;;22.10;58.50;;;;;;6267211;28;20633;-71
2023/07/09 07:19:10;;;;;;;1.92;1.00;;;22.10;58.50;;;;;;6266670;28;20024;-70
2023/07/09 07:22:10;;;;;;;1.17;0.80;;;22.10;58.50;;;;;;6266560;28;20029;-71
2023/07/09 07:25:12;;;;;;;2.00;1.20;;;22.10;58.50;;;;;;6266639;28;20021;-71
2023/07/09 07:28:13;;;;;;;1.30;0.95;;;22.10;58.50;;;;;;6266703;28;20094;-71
2023/07/09 07:31:14;;;;;;;1.05;0.90;;;22.10;58.50;;;;;;6260113;28;20067;-70
2023/07/09 07:34:14;;;;;;;1.20;0.93;;;22.10;58.50;;;;;;6267021;28;20029;-70
2023/07/09 07:37:19;;;;;;;1.38;0.93;;;22.10;58.50;;;;;;6266062;28;20029;-70
2023/07/09 07:40:20;;;;;;;1.10;0.88;;;22.00;58.40;;;;;;6266444;28;20044;-70
2023/07/09 07:43:21;;;;;;;1.40;1.00;;;22.00;58.40;;;;;;6266568;28;20618;-71
2023/07/09 07:46:21;;;;;;;0.80;0.80;;;22.00;58.40;;;;;;6266241;28;20075;-70
2023/07/09 07:49:22;;;;;;;0.80;0.80;;;22.10;58.50;;;;;;6266251;28;20496;-71
2023/07/09 07:52:24;;;;;;;1.05;0.90;;;22.10;58.50;;;;;;6270665;28;20029;-70
2023/07/09 07:55:25;;;;;;;1.05;0.93;;;22.10;58.50;;;;;;6270748;28;20468;-71
2023/07/09 07:58:25;;;;;;;1.35;1.00;;;22.10;58.50;;;;;;6270899;28;20047;-71
2023/07/09 08:01:26;;;;;;;1.73;1.00;;;22.10;58.50;;;;;;6270464;28;20064;-70
2023/07/09 08:04:26;;;;;;;1.80;1.00;;;22.10;58.50;;;;;;6270348;28;20025;-71
2023/07/09 08:07:27;;;;;;;1.20;0.95;;;22.10;58.50;;;;;;6270366;28;20029;-70
2023/07/09 08:10:28;;;;;;;0.98;0.80;;;22.10;58.50;;;;;;6270432;28;20094;-71
2023/07/09 08:13:28;;;;;;;0.85;0.77;;;22.10;58.50;;;;;;6270284;28;20025;-71
2023/07/09 08:16:29;;;;;;;1.75;1.10;;;22.10;58.50;;;;;;6270273;28;20029;-71
2023/07/09 08:19:30;;;;;;;0.98;0.80;;;22.10;58.50;;;;;;6270511;28;20200;-70
2023/07/09 08:22:31;;;;;;;0.80;0.80;;;22.00;58.40;;;;;;6270212;28;20508;-70
2023/07/09 08:25:32;;;;;;;0.70;0.70;;;22.10;58.50;;;;;;6270315;28;20029;-70
2023/07/09 08:28:33;;;;;;;1.13;0.85;;;22.10;58.50;;;;;;6269852;28;20029;-70
2023/07/09 08:31:34;;;;;;;1.02;0.88;;;22.00;58.50;;;;;;6269299;28;20045;-70
2023/07/09 08:34:35;;;;;;;2.42;1.00;;;22.10;58.50;;;;;;6269888;28;20063;-70
2023/07/09 08:37:35;;;;;;;1.60;0.90;;;22.10;58.50;;;;;;6270011;28;20486;-70
2023/07/09 08:40:43;;;;;;;1.35;0.90;;;22.10;58.50;;;;;;6268766;28;20028;-70
2023/07/09 08:44:06;;;;;;;1.10;1.00;;;22.10;58.50;;;;;;6246834;28;20024;-70
2023/07/09 08:47:23;;;;;;;1.00;0.80;;;22.00;58.40;;;;;;6267503;28;20130;-71
2023/07/09 08:50:39;;;;;;;1.77;0.82;;;22.10;58.50;;;;;;6265792;28;20128;-70
2023/07/09 08:53:49;;;;;;;1.17;0.80;;;22.10;58.50;;;;;;6267336;28;20017;-71
2023/07/09 08:56:50;;;;;;;0.95;0.80;;;22.10;58.50;;;;;;6268262;28;20079;-71
2023/07/09 08:59:57;;;;;;;1.42;1.17;;;22.10;58.50;;;;;;6263422;28;20021;-71
2023/07/09 09:03:02;;;;;;;1.30;0.90;;;22.10;58.50;;;;;;6243942;28;20155;-70
2023/07/09 09:06:10;;;;;;;1.05;0.88;;;22.10;58.50;;;;;;6267390;28;20037;-70
2023/07/09 09:09:19;;;;;;;1.35;0.88;;;22.10;58.50;;;;;;6264314;28;20056;-70
2023/07/09 09:12:25;;;;;;;1.30;1.10;;;22.10;58.50;;;;;;6267450;28;20569;-70
2023/07/09 09:15:27;;;;;;;1.10;0.77;;;22.10;58.50;;;;;;6266845;28;20078;-70
2023/07/09 09:18:30;;;;;;;1.02;0.80;;;22.10;58.60;;;;;;6266409;28;20083;-70
2023/07/09 09:21:37;;;;;;;1.25;0.90;;;22.10;58.50;;;;;;6267348;28;20343;-70
2023/07/09 09:24:49;;;;;;;1.48;1.00;;;22.10;58.50;;;;;;6266010;28;20061;-70
2023/07/09 09:27:50;;;;;;;1.33;0.90;;;22.00;58.50;;;;;;6266654;28;20487;-70
2023/07/09 09:30:50;;;;;;;1.48;0.90;;;22.10;58.50;;;;;;6262968;28;20053;-71
2023/07/09 09:33:51;;;;;;;0.88;0.80;;;22.00;58.50;;;;;;6267127;28;20031;-70
2023/07/09 09:36:52;;;;;;;0.93;0.70;;;22.10;58.60;;;;;;6259074;28;20047;-70
2023/07/09 09:39:53;;;;;;;1.10;1.00;;;22.10;58.60;;;;;;6265364;28;20490;-71
2023/07/09 09:42:57;;;;;;;1.20;0.93;;;22.10;58.60;;;;;;6242104;28;20051;-70
2023/07/09 09:46:01;;;;;;;0.90;0.80;;;22.10;58.60;;;;;;6260735;28;20025;-70
2023/07/09 09:49:03;;;;;;;0.80;0.80;;;22.00;58.50;;;;;;6262305;28;20666;-71
2023/07/09 09:52:10;;;;;;;1.10;0.90;;;22.00;58.50;;;;;;6266953;28;20033;-70
2023/07/09 09:55:24;;;;;;;1.10;0.80;;;22.10;58.60;;;;;;6258449;28;20021;-70
2023/07/09 09:58:28;;;;;;;0.90;0.77;;;22.10;58.60;;;;;;6261656;28;20388;-70
2023/07/09 10:01:34;;;;;;;1.52;0.90;;;22.10;58.50;;;;;;6265730;28;20075;-70
2023/07/09 10:04:35;;;;;;;1.75;1.05;;;22.10;58.60;;;;;;6267339;28;20029;-71
2023/07/09 10:07:45;;;;;;;3.15;0.90;;;22.10;58.60;;;;;;6267394;28;20086;-71
2023/07/09 10:10:46;;;;;;;1.25;0.90;;;22.10;58.60;;;;;;6266998;28;20565;-70
2023/07/09 10:13:48;;;;;;;1.88;1.05;;;22.10;58.60;;;;;;6267445;28;20107;-70
2023/07/09 10:16:57;;;;;;;5.40;1.05;;;22.10;58.60;;;;;;6266973;28;20017;-70
2023/07/09 10:20:36;;;;;;;1.70;1.10;;;22.10;58.60;;;;;;6267755;28;20476;-70
2023/07/09 10:23:44;;;;;;;0.73;0.70;;;22.10;58.60;;;;;;6212393;28;20060;-70
2023/07/09 10:26:56;;;;;;;3.15;1.13;;;22.10;58.60;;;;;;6267277;28;20037;-70
2023/07/09 10:30:19;;;;;;;1.33;1.10;;;22.10;58.60;;;;;;6267133;28;20080;-71
2023/07/09 10:33:56;;;;;;;1.65;0.95;;;22.10;58.60;;;;;;6267007;28;20029;-70
2023/07/09 10:37:11;;;;;;;3.50;0.90;;;22.10;58.60;;;;;;6266879;28;20024;-70
2023/07/09 10:40:17;;;;;;;1.60;0.93;;;22.10;58.60;;;;;;6267837;28;20531;-71
2023/07/09 10:43:38;;;;;;;1.88;0.90;;;22.10;58.60;;;;;;6266897;28;20025;-70
2023/07/09 10:46:42;;;;;;;1.63;1.10;;;22.10;58.60;;;;;;6266933;28;20356;-70
2023/07/09 10:49:44;;;;;;;1.08;0.85;;;22.10;58.60;;;;;;6266943;28;20093;-70
2023/07/09 10:52:49;;;;;;;1.38;0.88;;;22.10;58.60;;;;;;6264234;28;20025;-70
2023/07/09 10:56:09;;;;;;;2.67;1.10;;;22.00;58.50;;;;;;6266200;28;20129;-70
2023/07/09 10:59:33;;;;;;;1.50;1.00;;;22.10;58.60;;;;;;6266174;28;20094;-71
2023/07/09 11:02:36;;;;;;;1.35;0.90;;;22.10;58.70;;;;;;6252474;28;20392;-71
2023/07/09 11:05:38;;;;;;;1.30;0.80;;;22.10;58.70;;;;;;6256191;28;20031;-70
2023/07/09 11:08:41;;;;;;;2.60;1.05;;;22.10;58.70;;;;;;6264754;28;20052;-71
2023/07/09 11:11:47;;;;;;;2.78;1.08;;;22.10;58.70;;;;;;6265043;28;20032;-71
2023/07/09 11:15:20;;;;;;;1.52;1.00;;;22.10;58.70;;;;;;6264301;28;20535;-71
2023/07/09 11:18:24;;;;;;;1.63;0.80;;;22.10;58.70;;;;;;6261421;28;20392;-71
2023/07/09 11:21:25;;;;;;;1.30;0.87;;;22.10;58.60;;;;;;6265169;28;20426;-70
2023/07/09 11:25:06;;;;;;;1.83;1.08;;;22.10;58.60;;;;;;6268557;28;20062;-70
2023/07/09 11:28:07;;;;;;;0.73;0.65;;;22.10;58.60;;;;;;6196525;28;20065;-70
2023/07/09 11:31:30;;;;;;;1.75;0.90;;;22.10;58.70;;;;;;6269875;28;20594;-70
2023/07/09 11:34:31;;;;;;;2.15;1.10;;;22.10;58.70;;;;;;6269118;28;20498;-70
2023/07/09 11:37:32;;;;;;;0.70;0.60;;;22.10;58.70;;;;;;6269612;28;20035;-70
2023/07/09 11:40:33;;;;;;;1.08;0.80;;;22.00;58.50;;;;;;6269514;28;20184;-70
2023/07/09 11:43:46;;;;;;;0.93;0.80;;;22.10;58.70;;;;;;6251052;28;20040;-70
2023/07/09 11:47:17;;;;;;;2.55;1.00;;;22.10;58.60;;;;;;6268873;28;20427;-71
2023/07/09 11:50:30;;;;;;;0.93;0.80;;;22.10;58.70;;;;;;6269251;28;20032;-70
2023/07/09 11:53:45;;;;;;;1.17;1.00;;;22.00;58.50;;;;;;6269388;28;20025;-70
2023/07/09 11:56:58;;;;;;;;;;;22.10;58.70;;;;;;6267308;28;20067;-71
2023/07/09 12:00:00;;;;;;;1.00;0.80;;;22.10;58.70;;;;;;6257702;28;20624;-71
2023/07/09 12:03:01;;;;;;;1.55;1.02;;;22.10;58.70;;;;;;6269385;28;20037;-70
2023/07/09 12:06:03;;;;;;;2.60;1.00;;;22.10;58.70;;;;;;6268927;28;22035;-70
2023/07/09 12:09:05;;;;;;;2.22;0.82;;;22.10;58.70;;;;;;6262978;28;20547;-70
2023/07/09 12:12:21;;;;;;;0.80;0.70;;;22.00;58.60;;;;;;6250412;28;20032;-70
2023/07/09 12:15:27;;;;;;;1.25;0.90;;;22.10;58.70;;;;;;6268007;28;20021;-70
2023/07/09 12:18:30;;;;;;;1.25;0.80;;;22.10;58.70;;;;;;6269307;28;20017;-70
2023/07/09 12:21:37;;;;;;;1.67;0.82;;;22.10;58.70;;;;;;6268684;28;20079;-70
2023/07/09 12:24:43;;;;;;;1.17;0.82;;;22.10;58.70;;;;;;6242905;28;20112;-71
2023/07/09 12:27:43;;;;;;;3.47;0.80;;;22.10;58.80;;;;;;6250663;28;20439;-69
2023/07/09 12:30:52;;;;;;;1.00;0.80;;;22.00;58.60;;;;;;6268697;28;20064;-70
2023/07/09 12:33:55;;;;;;;2.22;1.00;;;22.10;58.70;;;;;;6267935;28;20154;-70
2023/07/09 12:36:56;;;;;;;1.58;1.08;;;22.00;58.60;;;;;;6269034;28;20023;-70
2023/07/09 12:40:00;;;;;;;1.45;1.17;;;22.00;58.60;;;;;;6267807;28;20415;-71
2023/07/09 12:43:01;;;;;;;2.08;1.00;;;22.10;58.80;;;;;;6263838;28;20021;-70
2023/07/09 12:46:02;;;;;;;1.73;1.00;;;22.10;58.70;;;;;;6267493;28;20479;-71
2023/07/09 12:49:05;;;;;;;1.80;0.90;;;22.10;58.70;;;;;;6251981;28;20071;-71
2023/07/09 12:52:20;;;;;;;1.10;0.80;;;22.10;58.80;;;;;;6268673;28;20025;-71
2023/07/09 12:55:26;;;;;;;1.63;0.82;;;22.00;58.60;;;;;;6267812;28;20404;-70
2023/07/09 12:58:32;;;;;;;3.60;0.90;;;22.10;58.70;;;;;;6267718;28;20411;-70
2023/07/09 13:01:34;;;;;;;5.07;1.77;;;22.10;58.80;;;;;;6267922;28;20032;-71
2023/07/09 13:04:39;;;;;;;1.65;1.00;;;22.10;58.80;;;;;;6267539;28;20025;-70
2023/07/09 13:07:41;;;;;;;1.13;0.90;;;22.00;58.70;;;;;;6268337;28;20064;-71
2023/07/09 13:10:41;;;;;;;5.97;1.10;;;22.10;58.80;;;;;;6267904;28;20039;-70
2023/07/09 13:13:53;;;;;;;1.60;0.98;;;22.10;58.80;;;;;;6267840;28;20025;-71
2023/07/09 13:17:03;;;;;;;1.38;0.95;;;22.10;58.80;;;;;;6266816;28;20372;-71
2023/07/09 13:20:04;;;;;;;1.08;0.90;;;22.10;58.80;;;;;;6267572;28;20082;-71
2023/07/09 13:23:20;;;;;;;2.33;0.70;;;22.10;58.80;;;;;;6266615;28;20100;-71
2023/07/09 13:26:21;;;;;;;1.88;1.00;;;22.10;58.80;;;;;;6266505;28;20406;-71
2023/07/09 13:29:21;;;;;;;1.58;0.90;;;22.00;58.70;;;;;;6267640;28;20042;-71
2023/07/09 13:32:22;;;;;;;5.10;0.75;;;22.10;58.80;;;;;;6267205;28;20048;-70
2023/07/09 13:35:23;;;;;;;1.77;0.85;;;22.00;58.70;;;;;;6266948;28;20108;-70
2023/07/09 13:38:24;;;;;;;2.90;1.27;;;22.10;58.80;;;;;;6267071;28;20029;-70
2023/07/09 13:41:25;;;;;;;2.15;0.98;;;22.10;58.90;;;;;;6266857;28;20031;-70
2023/07/09 13:44:29;;;;;;;2.40;0.90;;;22.00;58.70;;;;;;6266379;28;20047;-70
2023/07/09 13:47:29;;;;;;;1.70;1.10;;;22.10;58.80;;;;;;6265812;28;20531;-71
2023/07/09 13:50:30;;;;;;;1.40;0.90;;;22.10;58.80;;;;;;6266295;28;20068;-70
2023/07/09 13:53:31;;;;;;;3.80;0.98;;;22.00;58.70;;;;;;6267198;28;20475;-70
2023/07/09 13:56:32;;;;;;;1.92;0.98;;;22.10;58.80;;;;;;6265795;28;20032;-70
2023/07/09 13:59:33;;;;;;;1.67;1.00;;;22.10;58.90;;;;;;6247672;28;20439;-71
2023/07/09 14:02:34;;;;;;;1.58;1.00;;;22.00;58.80;;;;;;6266525;28;20041;-72
2023/07/09 14:05:34;;;;;;;1.42;0.80;;;22.10;58.90;;;;;;6259218;28;20078;-71
2023/07/09 14:08:35;;;;;;;1.10;0.90;;;22.10;58.80;;;;;;6265989;28;20041;-70
2023/07/09 14:11:43;;;;;;;1.20;0.80;;;22.00;58.70;;;;;;6266392;28;20044;-70
2023/07/09 14:14:45;;;;;;;1.65;0.90;;;22.00;58.70;;;;;;6266077;28;20150;-70
2023/07/09 14:17:46;;;;;;;1.58;0.75;;;22.00;58.80;;;;;;6266003;28;20091;-70
2023/07/09 14:20:47;;;;;;;1.20;0.80;;;22.10;58.90;;;;;;6266650;28;20051;-70
2023/07/09 14:23:49;;;;;;;1.40;0.80;;;22.10;58.80;;;;;;6266075;28;20108;-71
2023/07/09 14:26:51;;;;;;;1.48;1.05;;;22.00;58.80;;;;;;6265468;28;20029;-71
2023/07/09 14:29:52;;;;;;;2.40;0.98;;;22.10;58.90;;;;;;6265937;28;20072;-70
2023/07/09 14:32:53;;;;;;;2.83;0.80;;;22.10;58.90;;;;;;6258837;28;20040;-70
2023/07/09 14:35:54;;;;;;;4.65;0.90;;;22.00;58.80;;;;;;6265896;28;20025;-70
2023/07/09 14:38:55;;;;;;;2.33;1.13;;;22.00;58.80;;;;;;6247524;28;20025;-70
2023/07/09 14:41:56;;;;;;;1.02;0.80;;;22.10;58.90;;;;;;6266387;28;20048;-70
2023/07/09 14:44:57;;;;;;;10.40;1.10;;;22.00;58.80;;;;;;6265838;28;20414;-70
2023/07/09 14:47:57;;;;;;;2.97;1.08;;;22.10;58.90;;;;;;6265602;28;20063;-70
2023/07/09 14:50:58;;;;;;;2.95;0.82;;;22.10;58.90;;;;;;6265921;28;20064;-70
2023/07/09 14:53:59;;;;;;;1.85;1.02;;;22.10;58.90;;;;;;6257827;28;20032;-70
2023/07/09 14:57:08;;;;;;;1.58;0.90;;;22.10;58.90;;;;;;6245650;28;20021;-69
2023/07/09 15:00:27;;;;;;;2.10;0.90;;;22.10;58.90;;;;;;6251744;28;20021;-70
2023/07/09 15:03:29;;;;;;;0.88;0.70;;;22.00;58.80;;;;;;6270231;28;20060;-70
2023/07/09 15:06:29;;;;;;;2.25;1.02;;;22.10;58.90;;;;;;6270770;28;20033;-70
2023/07/09 15:09:37;;;;;;;5.65;1.20;;;22.00;58.80;;;;;;6257027;28;20579;-70
2023/07/09 15:12:38;;;;;;;3.10;1.00;;;22.10;58.90;;;;;;6270650;28;20033;-70
2023/07/09 15:15:39;;;;;;;1.38;1.00;;;22.00;58.80;;;;;;6269884;28;20512;-70
2023/07/09 15:18:39;;;;;;;1.10;0.90;;;22.00;58.80;;;;;;6269978;28;20028;-70
2023/07/09 15:21:40;;;;;;;2.20;1.10;;;22.00;58.80;;;;;;6270656;28;20075;-70
2023/07/09 15:24:42;;;;;;;1.48;1.00;;;22.10;58.90;;;;;;6269030;28;20021;-70
2023/07/09 15:27:43;;;;;;;2.78;0.93;;;22.00;58.80;;;;;;6270261;28;20033;-70
2023/07/09 15:30:44;;;;;;;1.67;1.00;;;22.00;58.80;;;;;;6269896;28;20574;-70
2023/07/09 15:33:45;;;;;;;1.55;1.05;;;22.10;58.90;;;;;;6257293;28;20139;-70
2023/07/09 15:36:51;;;;;;;1.75;0.98;;;22.10;58.90;;;;;;6270067;28;20033;-70
2023/07/09 15:39:51;;;;;;;1.80;1.00;;;22.00;58.80;;;;;;6269596;28;20064;-70
2023/07/09 15:42:57;;;;;;;1.65;1.10;;;22.10;58.90;;;;;;6268695;28;20489;-70
2023/07/09 15:45:58;;;;;;;1.48;0.90;;;22.10;58.80;;;;;;6269378;28;20027;-70
2023/07/09 15:48:58;;;;;;;1.73;1.20;;;22.10;58.80;;;;;;6269987;28;20021;-70
2023/07/09 15:52:01;;;;;;;1.98;1.00;;;22.10;58.80;;;;;;6269522;28;20541;-70
2023/07/09 15:55:02;;;;;;;2.20;1.20;;;22.00;58.70;;;;;;6269013;28;20061;-70
2023/07/09 15:58:04;;;;;;;1.98;0.82;;;22.10;58.80;;;;;;6268620;28;20043;-70
2023/07/09 16:01:06;;;;;;;4.25;1.20;;;22.10;58.80;;;;;;6269961;28;20253;-70